Time;durP1;ratioP1;P1;durP2;ratioP2;P2;SDS_P1;SDS_P2;PMS_P1;PMS_P2;Temp;Humidity;BMP_temperature;BMP_pressure;BME280_temperature;BME280_humidity;BME280_pressure;Samples;Min_cycle;Max_cycle;Signal;HPM_P1;HPM_P2
2022/12/02 00:02:21;;;;;;;;;41.75;32.00;;;;;9.21;62.75;102018.72;4867561;29;45518;-70
2022/12/02 00:04:54;;;;;;;;;32.75;30.50;;;;;9.01;63.06;101979.78;4855444;29;45513;-70
2022/12/02 00:07:20;;;;;;;;;34.00;30.75;;;;;9.13;63.43;101983.25;4867188;29;45447;-70
2022/12/02 00:09:46;;;;;;;;;26.75;24.50;;;;;8.94;63.09;101951.41;4867784;29;45372;-70
2022/12/02 00:12:26;;;;;;;;;26.00;24.25;;;;;9.07;62.75;101970.84;4867004;29;45505;-70
2022/12/02 00:14:56;;;;;;;;;27.00;27.00;;;;;9.27;63.54;101992.94;4866228;29;47754;-70
2022/12/02 00:17:21;;;;;;;;;32.25;30.75;;;;;9.25;63.38;101994.72;4866538;29;45462;-70
2022/12/02 00:19:47;;;;;;;;;25.75;23.75;;;;;9.23;63.32;101993.81;4867628;29;45341;-70
2022/12/02 00:22:12;;;;;;;;;36.75;33.25;;;;;9.25;63.14;101980.50;4864925;29;53328;-70
2022/12/02 00:24:37;;;;;;;;;32.25;30.75;;;;;9.18;63.63;101984.97;4866561;29;49020;-70
2022/12/02 00:27:03;;;;;;;;;37.50;33.75;;;;;9.09;63.20;101977.06;4850370;29;45351;-70
2022/12/02 00:29:28;;;;;;;;;40.00;34.25;;;;;9.11;63.63;101993.91;4867391;29;45323;-70
2022/12/02 00:31:53;;;;;;;;;40.00;31.00;;;;;9.07;63.53;101992.16;4866366;29;52542;-70
2022/12/02 00:34:19;;;;;;;;;33.00;29.50;;;;;8.96;63.75;101988.69;4867000;29;48642;-70
2022/12/02 00:36:44;;;;;;;;;41.00;35.50;;;;;8.94;63.86;101975.38;4866996;29;45611;-70
2022/12/02 00:39:09;;;;;;;;;34.00;31.75;;;;;8.88;63.97;101970.09;4867381;29;45495;-70
2022/12/02 00:41:34;;;;;;;;;30.00;26.75;;;;;8.93;63.93;101980.72;4866794;29;45396;-70
2022/12/02 00:46:43;;;;;;;;;39.00;36.00;;;;;8.88;64.05;101962.97;4853979;29;45692;-70
2022/12/02 00:49:14;;;;;;;;;34.00;32.75;;;;;8.91;64.50;101964.75;4850051;29;49897;-70
2022/12/02 00:51:40;;;;;;;;;41.50;34.25;;;;;8.99;64.20;101975.38;4854665;29;47032;-70
2022/12/02 00:54:06;;;;;;;;;41.00;35.25;;;;;9.00;64.16;101963.78;4866727;29;46359;-70
2022/12/02 00:56:32;;;;;;;;;33.75;31.00;;;;;9.05;64.25;101968.22;4854350;29;45838;-70
2022/12/02 00:58:58;;;;;;;;;40.50;35.50;;;;;9.07;64.51;101958.44;4866742;29;45491;-70
2022/12/02 01:01:24;;;;;;;;;35.00;30.50;;;;;9.03;64.02;101953.13;4866572;29;45584;-70
2022/12/02 01:03:50;;;;;;;;;36.25;30.50;;;;;9.08;64.24;101951.31;4866356;29;45512;-70
2022/12/02 01:06:15;;;;;;;;;41.75;34.00;;;;;9.15;64.24;101958.34;4866057;29;45281;-70
2022/12/02 01:08:41;;;;;;;;;33.75;30.25;;;;;9.13;64.44;101960.16;4866892;29;45946;-70
2022/12/02 01:11:06;;;;;;;;;34.75;29.75;;;;;9.10;64.34;101952.19;4866526;29;45403;-70
2022/12/02 01:13:32;;;;;;;;;36.50;32.25;;;;;9.16;64.24;101952.16;4864603;29;45623;-70
2022/12/02 01:15:57;;;;;;;;;37.25;31.75;;;;;9.17;64.34;101958.34;4865770;29;45454;-70
2022/12/02 01:18:23;;;;;;;;;41.75;36.00;;;;;9.18;64.04;101952.13;4866622;29;45604;-70
2022/12/02 01:20:48;;;;;;;;;35.75;33.50;;;;;9.14;64.12;101945.03;4849404;29;46596;-70
2022/12/02 01:23:14;;;;;;;;;49.50;37.50;;;;;9.12;64.73;101942.44;4866124;29;45362;-70
2022/12/02 01:25:39;;;;;;;;;37.00;30.75;;;;;9.14;63.72;101948.63;4866300;29;46320;-70
2022/12/02 01:28:05;;;;;;;;;40.25;35.50;;;;;9.13;64.44;101941.50;4866567;29;45523;-70
2022/12/02 01:30:31;;;;;;;;;42.50;35.25;;;;;9.14;64.00;101939.72;4866494;29;45385;-70
2022/12/02 01:32:56;;;;;;;;;45.00;36.50;;;;;9.14;64.35;101940.63;4866148;29;46550;-70
2022/12/02 01:35:22;;;;;;;;;38.00;32.50;;;;;9.11;64.21;101939.78;4866182;29;45259;-70
2022/12/02 01:37:47;;;;;;;;;41.00;34.50;;;;;9.12;64.03;101947.75;4866266;29;45340;-69
2022/12/02 01:40:14;;;;;;;;;39.50;36.00;;;;;9.13;64.09;101952.16;4866160;29;45523;-70
2022/12/02 01:42:39;;;;;;;;;35.75;31.75;;;;;9.11;64.51;101945.09;4864960;29;45394;-70
2022/12/02 01:45:07;;;;;;;;;32.25;26.75;;;;;9.10;64.29;101946.84;4866163;29;45377;-70
2022/12/02 01:47:33;;;;;;;;;34.00;31.00;;;;;9.04;64.22;101941.59;4864291;29;45371;-70
2022/12/02 01:49:59;;;;;;;;;43.75;35.50;;;;;8.95;64.57;101939.84;4866080;29;45523;-70
2022/12/02 01:52:24;;;;;;;;;36.50;34.50;;;;;9.01;64.26;101962.91;4865869;29;45325;-69
2022/12/02 01:54:50;;;;;;;;;42.50;36.25;;;;;8.97;64.65;101959.38;4861800;29;45522;-70
2022/12/02 01:57:18;;;;;;;;;42.25;35.00;;;;;9.00;64.80;101971.78;4858052;29;45367;-69
2022/12/02 01:59:43;;;;;;;;;37.25;35.75;;;;;8.95;64.18;101969.16;4865833;29;45747;-69
2022/12/02 02:02:26;;;;;;;;;42.50;35.75;;;;;8.93;64.57;101962.94;4865770;29;45449;-70
2022/12/02 02:04:57;;;;;;;;;40.50;33.25;;;;;8.88;64.69;101970.97;4854270;29;45444;-70
2022/12/02 02:07:22;;;;;;;;;45.50;36.25;;;;;8.88;64.96;101968.28;4848579;29;45445;-70
2022/12/02 02:09:47;;;;;;;;;48.50;38.25;;;;;8.90;64.60;101966.53;4865902;29;45487;-69
2022/12/02 02:12:13;;;;;;;;;46.25;37.75;;;;;8.96;64.92;101957.59;4864963;29;46040;-69
2022/12/02 02:14:38;;;;;;;;;45.75;36.75;;;;;8.93;64.78;101962.94;4847974;29;45391;-70
2022/12/02 02:17:04;;;;;;;;;48.00;37.25;;;;;8.91;64.68;101954.09;4864179;29;45675;-69
2022/12/02 02:19:30;;;;;;;;;45.00;37.00;;;;;8.80;64.77;101940.81;4865720;29;45317;-69
2022/12/02 02:21:57;;;;;;;;;34.75;29.50;;;;;8.81;64.91;101921.31;4848370;29;48625;-69
2022/12/02 02:24:23;;;;;;;;;44.75;36.50;;;;;8.82;64.39;101900.88;4849968;29;45800;-70
2022/12/02 02:26:49;;;;;;;;;39.50;32.50;;;;;9.01;64.29;101934.50;4865482;29;45427;-69
2022/12/02 02:29:14;;;;;;;;;37.00;32.75;;;;;8.84;64.36;101900.00;4865614;29;45331;-69
2022/12/02 02:31:40;;;;;;;;;37.25;34.25;;;;;8.71;64.79;101871.69;4865260;29;45496;-70
2022/12/02 02:34:06;;;;;;;;;40.25;36.50;;;;;8.86;64.55;101913.28;4845518;29;45828;-69
2022/12/02 02:36:32;;;;;;;;;36.75;35.00;;;;;9.04;64.62;101934.47;4860949;29;45421;-69
2022/12/02 02:38:58;;;;;;;;;41.00;34.75;;;;;8.86;64.27;101887.53;4865251;29;45585;-70
2022/12/02 02:41:24;;;;;;;;;48.75;37.25;;;;;8.84;64.65;101893.78;4865232;29;45842;-69
2022/12/02 02:43:49;;;;;;;;;38.50;33.00;;;;;8.72;64.30;101878.78;4847658;29;45435;-69
2022/12/02 02:46:15;;;;;;;;;32.75;27.00;;;;;9.07;64.79;101918.47;4864784;29;45838;-70
2022/12/02 02:48:41;;;;;;;;;41.00;36.50;;;;;8.79;64.13;101867.19;4848421;29;45572;-69
2022/12/02 02:51:08;;;;;;;;;43.25;36.75;;;;;8.96;63.94;101896.34;4846821;29;46526;-70
2022/12/02 02:53:34;;;;;;;;;37.25;31.25;;;;;9.10;64.40;101922.88;4864975;29;45274;-70
2022/12/02 02:56:00;;;;;;;;;40.00;35.25;;;;;9.04;64.60;101902.50;4840072;29;45565;-70
2022/12/02 02:58:25;;;;;;;;;46.00;38.50;;;;;8.88;64.05;101876.88;4848300;29;45417;-70
2022/12/02 03:01:01;;;;;;;;;40.50;31.00;;;;;9.11;64.36;101910.47;4847873;29;48121;-70
2022/12/02 03:03:32;;;;;;;;;34.25;28.75;;;;;8.89;64.26;101878.66;4847388;29;45766;-69
2022/12/02 03:05:59;;;;;;;;;36.50;32.25;;;;;8.98;64.31;101893.69;4864172;29;45322;-70
2022/12/02 03:08:27;;;;;;;;;42.00;36.00;;;;;8.97;64.25;101891.91;4863494;29;45499;-69
2022/12/02 03:10:55;;;;;;;;;41.00;34.50;;;;;9.06;64.58;101906.03;4847856;29;48126;-70
2022/12/02 03:13:22;;;;;;;;;35.50;31.50;;;;;9.04;64.23;101896.31;4864171;29;45417;-69
2022/12/02 03:15:48;;;;;;;;;45.00;31.75;;;;;9.07;64.21;101896.25;4864076;29;45423;-70
2022/12/02 03:18:14;;;;;;;;;47.25;38.25;;;;;9.10;64.30;101906.91;4864776;29;45451;-70
2022/12/02 03:20:40;;;;;;;;;43.75;37.00;;;;;9.08;64.54;101890.06;4847562;29;46134;-70
2022/12/02 03:23:05;;;;;;;;;48.75;38.25;;;;;9.14;64.27;101895.34;4864582;29;45462;-70
2022/12/02 03:25:31;;;;;;;;;39.25;35.50;;;;;9.17;64.21;101894.41;4864602;29;45549;-69
2022/12/02 03:27:56;;;;;;;;;48.50;38.25;;;;;9.13;64.33;101898.88;4864817;29;45468;-70
2022/12/02 03:30:22;;;;;;;;;44.25;38.00;;;;;9.12;64.35;101880.25;4864602;29;45494;-70
2022/12/02 03:32:47;;;;;;;;;41.00;36.50;;;;;9.14;64.21;101879.34;4847704;29;45901;-70
2022/12/02 03:35:13;;;;;;;;;38.00;35.50;;;;;9.14;63.87;101879.34;4864735;29;45309;-69
2022/12/02 03:37:39;;;;;;;;;41.75;35.25;;;;;9.15;63.88;101891.75;4847406;29;45524;-70
2022/12/02 03:40:05;;;;;;;;;39.50;36.00;;;;;9.08;63.60;101892.72;4864361;29;45501;-70
2022/12/02 03:42:31;;;;;;;;;43.50;34.75;;;;;9.08;64.28;101884.72;4863815;29;45322;-70
2022/12/02 03:44:56;;;;;;;;;47.50;35.25;;;;;9.05;63.72;101877.66;4864534;29;45332;-70
2022/12/02 03:47:22;;;;;;;;;44.00;38.25;;;;;9.05;64.32;101890.06;4863742;29;45283;-69
2022/12/02 03:49:47;;;;;;;;;36.75;31.25;;;;;8.99;64.21;101882.16;4864271;29;46562;-70
2022/12/02 03:52:13;;;;;;;;;41.50;37.25;;;;;8.97;64.61;101870.59;4864556;29;45322;-69
2022/12/02 03:54:38;;;;;;;;;47.25;39.00;;;;;9.08;64.26;101879.41;4861615;29;45444;-70
2022/12/02 03:57:05;;;;;;;;;47.50;39.25;;;;;9.04;63.96;101865.22;4837844;29;49494;-70
2022/12/02 03:59:30;;;;;;;;;35.75;30.25;;;;;9.00;63.88;101858.13;4863908;29;46295;-69
2022/12/02 04:01:55;;;;;;;;;42.00;33.00;;;;;9.04;64.06;101869.69;4864275;29;45404;-69
2022/12/02 04:04:21;;;;;;;;;48.00;37.50;;;;;9.02;64.12;101868.78;4864373;29;45296;-69
2022/12/02 04:06:47;;;;;;;;;45.25;36.75;;;;;8.98;63.90;101859.06;4864139;29;45636;-69
2022/12/02 04:09:12;;;;;;;;;45.75;36.75;;;;;9.02;63.81;101868.78;4864097;29;46848;-70
2022/12/02 04:11:37;;;;;;;;;35.50;29.75;;;;;8.95;63.59;101870.59;4864290;29;45385;-69
2022/12/02 04:14:03;;;;;;;;;49.25;38.00;;;;;8.98;63.81;101861.72;4861645;29;45264;-69
2022/12/02 04:16:28;;;;;;;;;41.00;35.75;;;;;8.98;64.45;101853.75;4863582;29;45379;-69
2022/12/02 04:18:53;;;;;;;;;47.50;38.00;;;;;8.90;63.67;101835.16;4863906;29;45539;-70
2022/12/02 04:21:20;;;;;;;;;36.25;35.50;;;;;8.94;63.94;101831.59;4864063;29;45400;-70
2022/12/02 04:23:46;;;;;;;;;44.75;33.25;;;;;9.02;63.78;101843.06;4847037;29;45427;-70
2022/12/02 04:26:11;;;;;;;;;46.00;37.75;;;;;9.01;64.29;101833.28;4864227;29;45355;-70
2022/12/02 04:28:36;;;;;;;;;36.00;29.25;;;;;9.02;63.64;101829.75;4846748;29;48241;-70
2022/12/02 04:31:02;;;;;;;;;31.50;27.25;;;;;9.05;63.96;101831.47;4863686;29;45458;-70
2022/12/02 04:33:27;;;;;;;;;39.25;35.00;;;;;9.04;63.47;101830.59;4864095;29;45595;-70
2022/12/02 04:35:52;;;;;;;;;41.00;35.50;;;;;9.10;63.92;101840.31;4864080;29;45405;-70
2022/12/02 04:38:17;;;;;;;;;40.50;35.00;;;;;9.07;63.53;101843.91;4865859;29;45414;-70
2022/12/02 04:40:43;;;;;;;;;42.00;34.50;;;;;9.04;63.54;101837.72;4867096;29;45306;-69
2022/12/02 04:43:08;;;;;;;;;43.75;36.00;;;;;9.04;64.12;101837.72;4848545;29;45338;-70
2022/12/02 04:45:34;;;;;;;;;37.25;33.25;;;;;9.09;64.08;101842.09;4865507;29;45560;-69
2022/12/02 04:48:00;;;;;;;;;35.00;31.00;;;;;9.14;63.75;101846.47;4865942;29;47427;-69
2022/12/02 04:50:25;;;;;;;;;39.50;34.00;;;;;9.13;64.15;101831.41;4867040;29;45461;-69
2022/12/02 04:52:51;;;;;;;;;42.75;35.25;;;;;9.20;63.81;101835.78;4866650;29;45368;-69
2022/12/02 04:55:16;;;;;;;;;45.25;40.00;;;;;9.11;63.59;101823.44;4859292;29;45600;-69
2022/12/02 04:57:41;;;;;;;;;42.25;36.25;;;;;9.12;63.46;101838.53;4861648;29;46099;-70
2022/12/02 05:00:08;;;;;;;;;43.75;37.50;;;;;9.07;63.47;101827.00;4866372;29;45678;-69
2022/12/02 05:02:33;;;;;;;;;54.75;42.00;;;;;8.97;63.43;101823.56;4866692;29;45399;-69
2022/12/02 05:04:58;;;;;;;;;35.50;33.25;;;;;9.02;63.79;101828.84;4866868;29;45549;-69
2022/12/02 05:07:24;;;;;;;;;42.50;36.50;;;;;9.04;64.09;101830.59;4866422;29;45483;-69
2022/12/02 05:09:49;;;;;;;;;34.75;31.25;;;;;8.99;63.66;101821.78;4866454;29;51682;-69
2022/12/02 05:12:14;;;;;;;;;43.50;37.00;;;;;8.95;63.65;101820.00;4865695;29;45325;-69
2022/12/02 05:14:40;;;;;;;;;45.50;37.75;;;;;8.99;63.56;101826.22;4849477;29;47473;-69
2022/12/02 05:17:06;;;;;;;;;49.50;39.25;;;;;8.84;63.73;101808.59;4866044;29;45389;-69
2022/12/02 05:19:31;;;;;;;;;44.25;37.75;;;;;8.92;63.83;101821.81;4866561;29;45357;-69
2022/12/02 05:21:56;;;;;;;;;46.00;40.00;;;;;8.80;63.46;101807.69;4866352;29;45410;-69
2022/12/02 05:24:22;;;;;;;;;52.75;41.25;;;;;8.75;64.00;101809.53;4866209;29;45543;-69
2022/12/02 05:26:47;;;;;;;;;55.25;41.75;;;;;8.74;64.11;101804.22;4866279;29;49061;-69
2022/12/02 05:29:12;;;;;;;;;40.50;36.00;;;;;8.83;64.02;101814.78;4865744;29;53828;-70
2022/12/02 05:31:37;;;;;;;;;46.75;38.25;;;;;8.78;64.12;101796.19;4865900;29;50533;-69
2022/12/02 05:34:03;;;;;;;;;38.25;34.25;;;;;8.86;64.01;101814.78;4866521;29;45360;-70
2022/12/02 05:36:28;;;;;;;;;36.75;33.25;;;;;8.87;64.33;101806.78;4866106;29;45670;-69
2022/12/02 05:38:53;;;;;;;;;41.00;36.00;;;;;8.89;64.36;101794.34;4866454;29;45518;-70
2022/12/02 05:41:19;;;;;;;;;43.00;37.25;;;;;8.92;64.18;101804.09;4866016;29;50635;-69
2022/12/02 05:43:44;;;;;;;;;47.50;38.25;;;;;8.89;64.20;101783.69;4864394;29;50417;-69
2022/12/02 05:46:20;;;;;;;;;42.50;38.00;;;;;9.00;64.00;101791.56;4865860;29;45223;-69
2022/12/02 05:48:47;;;;;;;;;42.50;36.75;;;;;9.04;64.24;101798.63;4865159;29;45725;-69
2022/12/02 05:51:16;;;;;;;;;52.50;39.00;;;;;9.06;63.76;101798.63;4866194;29;45522;-70
2022/12/02 05:53:43;;;;;;;;;40.00;34.25;;;;;9.03;64.16;101794.19;4864738;29;45932;-70
2022/12/02 05:56:25;;;;;;;;;47.75;38.00;;;;;9.00;63.97;101796.00;4853334;29;45501;-69
2022/12/02 05:58:51;;;;;;;;;39.50;36.25;;;;;8.93;63.87;101792.53;4865793;29;45681;-69
2022/12/02 06:01:25;;;;;;;;;50.75;42.75;;;;;8.88;63.78;101781.91;4863027;29;45446;-69
2022/12/02 06:03:50;;;;;;;;;42.25;36.25;;;;;8.86;63.95;101783.69;4865750;29;45292;-70
2022/12/02 06:06:22;;;;;;;;;45.25;38.50;;;;;8.74;64.05;101762.53;4865263;29;45362;-70
2022/12/02 06:08:47;;;;;;;;;52.00;39.50;;;;;8.86;64.21;101774.84;4865756;29;45344;-69
2022/12/02 06:11:27;;;;;;;;;46.50;38.75;;;;;8.90;64.10;101771.25;4864959;29;45429;-70
2022/12/02 06:13:54;;;;;;;;;52.00;39.75;;;;;8.89;64.43;101762.38;4864433;29;45494;-70
2022/12/02 06:16:27;;;;;;;;;45.00;40.25;;;;;8.90;64.13;101769.47;4865385;29;45327;-70
2022/12/02 06:18:53;;;;;;;;;50.50;40.00;;;;;8.86;63.66;101781.03;4865425;29;45804;-70
2022/12/02 06:21:21;;;;;;;;;48.25;38.25;;;;;8.83;64.18;101786.38;4865332;29;45477;-70
2022/12/02 06:23:49;;;;;;;;;47.00;39.75;;;;;8.78;64.13;101776.69;4863682;29;45386;-69
2022/12/02 06:26:16;;;;;;;;;42.50;36.50;;;;;8.70;64.25;101764.31;4865164;29;46378;-69
2022/12/02 06:28:44;;;;;;;;;45.75;36.75;;;;;8.76;64.36;101771.38;4865237;29;45331;-70
2022/12/02 06:31:12;;;;;;;;;50.75;41.25;;;;;8.77;64.10;101778.47;4861902;29;45274;-69
2022/12/02 06:33:38;;;;;;;;;37.75;35.25;;;;;8.71;64.10;101770.53;4864517;29;45516;-69
2022/12/02 06:36:10;;;;;;;;;44.75;38.00;;;;;8.67;64.47;101761.69;4848382;29;47164;-70
2022/12/02 06:38:42;;;;;;;;;44.50;37.50;;;;;8.76;64.68;101767.84;4865267;29;45477;-69
2022/12/02 06:41:29;;;;;;;;;56.75;42.75;;;;;8.77;64.15;101775.81;4865375;29;45389;-70
2022/12/02 06:46:51;;;;;;;;;51.50;42.25;;;;;8.70;64.81;101774.97;4863080;29;45810;-70
2022/12/02 06:49:21;;;;;;;;;50.50;38.25;;;;;8.75;64.32;101766.94;4864862;29;45872;-69
2022/12/02 06:51:59;;;;;;;;;51.75;40.50;;;;;8.71;64.28;101746.56;4863137;29;46561;-70
2022/12/02 06:54:30;;;;;;;;;50.50;40.25;;;;;8.80;64.57;101754.44;4863247;29;45405;-70
2022/12/02 06:56:59;;;;;;;;;56.75;43.00;;;;;8.75;64.54;101750.09;4862277;29;45694;-70
2022/12/02 06:59:26;;;;;;;;;48.75;41.25;;;;;8.76;64.44;101755.41;4864716;29;45331;-70
2022/12/02 07:01:54;;;;;;;;;55.00;43.25;;;;;8.81;64.73;101763.34;4863481;29;45512;-69
2022/12/02 07:04:29;;;;;;;;;54.25;40.25;;;;;8.84;65.14;101763.31;4864221;29;45701;-70
2022/12/02 07:06:59;;;;;;;;;48.00;39.00;;;;;8.83;64.48;101756.22;4864432;29;45455;-70
2022/12/02 07:09:39;;;;;;;;;54.25;39.00;;;;;8.78;65.00;101768.69;4864724;29;45754;-69
2022/12/02 07:12:44;;;;;;;;;51.25;41.00;;;;;8.71;64.58;101763.41;4864040;29;45467;-70
2022/12/02 07:15:26;;;;;;;;;49.75;40.25;;;;;8.82;64.92;101775.75;4860517;29;45582;-70
2022/12/02 07:17:55;;;;;;;;;58.25;43.25;;;;;8.82;64.93;101770.41;4863527;29;45545;-69
2022/12/02 07:20:31;;;;;;;;;48.25;41.50;;;;;8.83;65.42;101761.56;4863862;29;45577;-70
2022/12/02 07:22:57;;;;;;;;;53.50;42.75;;;;;8.82;64.67;101755.34;4862136;29;45337;-69
2022/12/02 07:25:54;;;;;;;;;48.00;41.00;;;;;8.79;65.07;101752.72;4863204;29;45440;-69
2022/12/02 07:28:24;;;;;;;;;47.00;39.75;;;;;8.75;64.92;101758.94;4864384;29;46205;-69
2022/12/02 07:31:27;;;;;;;;;49.75;39.25;;;;;8.80;65.05;101766.91;4864171;29;45501;-68
2022/12/02 07:33:52;;;;;;;;;53.00;42.75;;;;;8.77;65.20;101778.47;4858316;29;45762;-69
2022/12/02 07:36:18;;;;;;;;;47.25;39.00;;;;;8.68;64.94;101752.78;4864332;29;45416;-70
2022/12/02 07:38:44;;;;;;;;;50.25;38.75;;;;;8.69;65.38;101753.69;4864628;29;46246;-69
2022/12/02 07:41:09;;;;;;;;;46.25;39.50;;;;;8.73;65.44;101750.09;4862325;29;45483;-71
2022/12/02 07:43:35;;;;;;;;;49.50;43.00;;;;;8.79;65.40;101758.03;4861760;29;45510;-71
2022/12/02 07:46:00;;;;;;;;;51.50;38.00;;;;;8.81;65.60;101766.88;4863431;29;45353;-71
2022/12/02 07:48:26;;;;;;;;;47.25;40.00;;;;;8.85;65.41;101765.06;4864380;29;45338;-71
2022/12/02 07:50:51;;;;;;;;;53.50;41.00;;;;;8.89;65.73;101766.84;4846922;29;51574;-71
2022/12/02 07:53:17;;;;;;;;;30.75;25.00;;;;;8.84;65.24;101761.53;4863297;29;46202;-72
2022/12/02 07:55:42;;;;;;;;;48.75;38.00;;;;;8.84;65.48;101763.31;4863138;29;45683;-72
2022/12/02 07:58:07;;;;;;;;;48.75;41.50;;;;;8.82;65.40;101771.31;4863988;29;57915;-70
2022/12/02 08:00:34;;;;;;;;;43.50;36.75;;;;;8.80;65.58;101750.91;4842557;29;45499;-73
2022/12/02 08:03:00;;;;;;;;;46.50;39.25;;;;;8.73;65.52;101750.09;4860312;29;45411;-73
2022/12/02 08:05:25;;;;;;;;;55.00;40.00;;;;;8.83;65.70;101754.44;4863208;29;45862;-72
2022/12/02 08:07:53;;;;;;;;;55.25;42.00;;;;;8.81;65.50;101760.69;4846640;29;47317;-72
2022/12/02 08:10:19;;;;;;;;;45.75;38.75;;;;;8.81;65.72;101771.34;4862631;29;45510;-72
2022/12/02 08:12:45;;;;;;;;;54.00;42.00;;;;;8.71;65.97;101762.53;4864614;29;45521;-73
2022/12/02 08:15:11;;;;;;;;;46.00;38.00;;;;;8.70;65.78;101761.66;4864440;29;45560;-71
2022/12/02 08:17:37;;;;;;;;;54.00;43.25;;;;;8.68;66.00;101765.22;4858986;29;46945;-70
2022/12/02 08:20:04;;;;;;;;;51.75;42.25;;;;;8.67;66.34;101747.47;4855657;29;45756;-70
2022/12/02 08:22:30;;;;;;;;;57.25;43.50;;;;;8.70;66.15;101760.75;4861363;29;45310;-70
2022/12/02 08:24:55;;;;;;;;;56.25;44.25;;;;;8.63;66.24;101751.06;4856856;29;45383;-70
2022/12/02 08:27:23;;;;;;;;;47.00;36.25;;;;;8.64;65.94;101760.84;4865387;29;46617;-69
2022/12/02 08:29:49;;;;;;;;;56.25;44.75;;;;;8.52;66.01;101743.19;4856724;29;45913;-70
2022/12/02 08:32:19;;;;;;;;;57.75;44.00;;;;;8.53;66.08;101759.09;4863715;29;45383;-70
2022/12/02 08:34:45;;;;;;;;;60.75;44.50;;;;;8.51;66.67;101768.88;4864779;29;45514;-70
2022/12/02 08:37:11;;;;;;;;;57.75;45.75;;;;;8.56;66.35;101768.88;4865432;29;45397;-70
2022/12/02 08:39:37;;;;;;;;;57.75;44.00;;;;;8.53;66.12;101768.88;4847509;29;45463;-70
2022/12/02 08:42:03;;;;;;;;;55.50;44.00;;;;;8.46;66.58;101765.38;4865976;29;45324;-70
2022/12/02 08:44:28;;;;;;;;;58.50;46.75;;;;;8.51;66.57;101760.91;4865925;29;45532;-70
2022/12/02 08:46:54;;;;;;;;;57.00;45.25;;;;;8.61;66.54;101764.38;4858382;29;45987;-70
2022/12/02 08:49:19;;;;;;;;;53.75;40.75;;;;;8.57;66.74;101761.75;4865043;29;49999;-68
2022/12/02 08:51:44;;;;;;;;;58.50;45.00;;;;;8.56;66.25;101774.19;4866164;29;45730;-69
2022/12/02 08:54:10;;;;;;;;;54.75;44.00;;;;;8.40;66.82;101745.88;4866292;29;45524;-68
2022/12/02 08:56:35;;;;;;;;;54.75;42.25;;;;;8.56;66.86;101758.22;4864319;29;46202;-67
2022/12/02 08:59:01;;;;;;;;;59.00;46.00;;;;;8.60;66.38;101761.72;4846916;29;45629;-66
2022/12/02 09:01:27;;;;;;;;;56.75;45.50;;;;;8.51;66.02;101752.94;4862756;29;45347;-67
2022/12/02 09:03:52;;;;;;;;;58.00;44.75;;;;;8.56;66.52;101755.56;4848444;29;45619;-66
2022/12/02 09:06:20;;;;;;;;;49.50;39.50;;;;;8.60;66.62;101756.41;4863730;29;49687;-67
2022/12/02 09:08:46;;;;;;;;;57.25;45.00;;;;;8.62;66.75;101741.31;4866507;29;45418;-67
2022/12/02 09:11:11;;;;;;;;;54.00;42.25;;;;;8.62;66.25;101746.63;4865938;29;45427;-67
2022/12/02 09:13:37;;;;;;;;;59.25;44.50;;;;;8.63;66.47;101754.59;4866209;29;45379;-67
2022/12/02 09:16:02;;;;;;;;;58.75;44.25;;;;;8.62;66.00;101760.84;4865684;29;46322;-68
2022/12/02 09:18:27;;;;;;;;;53.75;43.50;;;;;8.53;66.15;101743.13;4865148;29;45687;-67
2022/12/02 09:20:53;;;;;;;;;48.00;40.50;;;;;8.58;66.58;101755.53;4866223;29;45451;-67
2022/12/02 09:23:18;;;;;;;;;57.00;46.50;;;;;8.53;66.02;101745.81;4863978;29;56349;-67
2022/12/02 09:25:43;;;;;;;;;57.75;44.50;;;;;8.60;65.97;101762.59;4862827;29;45456;-67
2022/12/02 09:28:09;;;;;;;;;56.50;46.75;;;;;8.50;66.33;101744.94;4863032;29;51834;-67
2022/12/02 09:30:34;;;;;;;;;57.00;47.00;;;;;8.55;66.47;101745.78;4848228;29;45545;-67
2022/12/02 09:32:59;;;;;;;;;55.50;44.50;;;;;8.57;66.61;101743.13;4865611;29;45520;-67
2022/12/02 09:35:25;;;;;;;;;56.75;43.50;;;;;8.61;66.26;101753.75;4865492;29;45445;-67
2022/12/02 09:37:50;;;;;;;;;57.75;40.50;;;;;8.65;66.63;101757.25;4864458;29;55320;-67
2022/12/02 09:40:16;;;;;;;;;62.25;44.75;;;;;8.65;66.21;101752.84;4865268;29;45357;-66
2022/12/02 09:42:42;;;;;;;;;59.00;46.75;;;;;8.58;66.60;101742.25;4863988;29;45482;-67
2022/12/02 09:45:07;;;;;;;;;58.75;41.50;;;;;8.67;66.11;101752.78;4864961;29;45848;-71
2022/12/02 09:47:34;;;;;;;;;61.25;46.75;;;;;8.62;66.07;101749.28;4865390;29;45422;-71
2022/12/02 09:49:59;;;;;;;;;61.75;46.00;;;;;8.61;66.10;101735.13;4848388;29;45286;-71
2022/12/02 09:52:26;;;;;;;;;58.75;44.50;;;;;8.64;65.93;101736.88;4864840;29;45338;-69
2022/12/02 09:55:02;;;;;;;;;46.75;40.25;;;;;8.63;66.27;101727.13;4871922;29;45952;-68
2022/12/02 09:57:30;;;;;;;;;62.25;48.75;;;;;8.66;65.82;101745.72;4860835;29;45856;-68
2022/12/02 10:00:01;;;;;;;;;53.25;43.25;;;;;8.58;65.93;101737.78;4864142;29;45418;-68
2022/12/02 10:02:38;;;;;;;;;63.00;46.75;;;;;8.61;66.25;101739.56;4837313;29;45507;-68
2022/12/02 10:05:19;;;;;;;;;59.00;46.50;;;;;8.63;66.38;101738.63;4843119;29;48208;-68
2022/12/02 10:07:46;;;;;;;;;56.75;45.00;;;;;8.64;65.96;101731.56;4864131;29;46660;-68
2022/12/02 10:10:20;;;;;;;;;55.75;44.00;;;;;8.61;65.98;101734.25;4864033;29;45789;-68
2022/12/02 10:12:46;;;;;;;;;62.50;47.75;;;;;8.58;66.29;101729.81;4862791;29;45616;-68
2022/12/02 10:15:15;;;;;;;;;58.50;46.00;;;;;8.58;65.98;101724.47;4863561;29;45605;-68
2022/12/02 10:17:43;;;;;;;;;64.00;47.25;;;;;8.48;65.77;101713.03;4846820;29;45377;-68
2022/12/02 10:20:17;;;;;;;;;59.25;46.25;;;;;8.51;66.07;101707.69;4844832;29;45480;-68
2022/12/02 10:23:04;;;;;;;;;59.00;47.25;;;;;8.52;65.91;101714.78;4842471;29;45634;-68
2022/12/02 10:25:30;;;;;;;;;58.50;47.50;;;;;8.51;66.25;101707.69;4843477;29;46195;-68
2022/12/02 10:27:56;;;;;;;;;59.00;48.00;;;;;8.48;66.22;101707.72;4845415;29;45488;-68
2022/12/02 10:30:24;;;;;;;;;56.75;46.00;;;;;8.52;65.98;101704.13;4844251;29;45466;-68
2022/12/02 10:33:05;;;;;;;;;57.00;46.00;;;;;8.58;66.03;101704.97;4845779;29;45676;-68
2022/12/02 10:35:52;;;;;;;;;66.75;51.25;;;;;8.56;66.25;101709.44;4843515;29;47212;-68
2022/12/02 10:38:40;;;;;;;;;61.00;49.75;;;;;8.56;66.02;101699.66;4844834;29;45810;-68
2022/12/02 10:41:24;;;;;;;;;65.00;50.50;;;;;8.59;66.10;101702.31;4844550;29;45312;-68
2022/12/02 10:43:52;;;;;;;;;63.50;48.00;;;;;8.58;66.28;101700.53;4842372;29;45702;-68
2022/12/02 10:46:19;;;;;;;;;58.75;48.75;;;;;8.53;66.07;101689.91;4843245;29;45348;-68
2022/12/02 10:48:45;;;;;;;;;55.75;43.75;;;;;8.57;66.14;101689.91;4849367;29;45771;-68
2022/12/02 10:51:16;;;;;;;;;59.25;46.50;;;;;8.43;66.24;101672.28;4844073;29;45560;-68
2022/12/02 10:53:43;;;;;;;;;65.50;50.00;;;;;8.53;66.11;101681.94;4842533;29;45937;-68
2022/12/02 10:56:19;;;;;;;;;53.75;43.50;;;;;8.50;66.30;101674.00;4844076;29;46399;-68
2022/12/02 10:58:46;;;;;;;;;60.50;44.50;;;;;8.50;66.18;101662.47;4843433;29;45659;-69
2022/12/02 11:01:12;;;;;;;;;58.75;47.75;;;;;8.58;66.01;101670.38;4844916;29;45513;-68
2022/12/02 11:03:41;;;;;;;;;59.50;46.25;;;;;8.57;66.43;101658.88;4843262;29;46477;-68
2022/12/02 11:06:13;;;;;;;;;63.75;50.50;;;;;8.68;66.21;101667.59;4842056;29;47368;-68
2022/12/02 11:08:41;;;;;;;;;57.00;46.00;;;;;8.63;66.07;101653.47;4838365;29;45636;-68
2022/12/02 11:11:06;;;;;;;;;64.25;48.50;;;;;8.70;65.99;101664.94;4843657;29;45338;-68
2022/12/02 11:13:57;;;;;;;;;59.75;48.00;;;;;8.68;65.97;101661.41;4839753;29;45430;-68
2022/12/02 11:16:25;;;;;;;;;58.50;45.50;;;;;8.73;66.04;101664.03;4842267;29;48275;-67
2022/12/02 11:19:07;;;;;;;;;56.75;45.75;;;;;8.75;66.19;101654.25;4861781;29;45510;-67
2022/12/02 11:21:43;;;;;;;;;57.25;46.50;;;;;8.81;66.03;101651.53;4854991;29;45524;-67
2022/12/02 11:24:21;;;;;;;;;52.75;39.75;;;;;8.78;65.63;101652.44;4863506;29;45869;-68
2022/12/02 11:26:58;;;;;;;;;61.25;48.25;;;;;8.78;65.68;101648.91;4843914;29;47413;-68